• Join FlightAware (Why Join?)
  • Login
  • US Flag 
 
01:09AM EST


 

Airport Tracker/Info


-or-


 

Live Flight TrackerFlight Track Log ✈ N830QS ✈ 20-Aug-2013 ✈ KPHX - KELP

Flight Track Log - Related Links

Times and Time Zones

All times are in EDT time to prevent confusion due to time zone crossing. See the N830QS flight status page for this flight to view local times or setup timezone preferences in your user account.

Time Position Orientation Groundspeed Altitude Reporting Facility
EDT Latitude Longitude Course Direction KTS MPH feet Rate Location/Type
04:26PM 33.4333 -112.0333 252° West 194 223 1,900  Level Phoenix TRACON
04:28PM 33.4072 -112.1300 252° West 234 269 4,300 2,280 Climbing Albuquerque Center
04:29PM 33.3408 -112.1525 196° South 271 312 7,100 2,640 Climbing Albuquerque Center
04:30PM 33.2733 -112.1008 147° Southeast 293 337 9,800 2,640 Climbing Albuquerque Center
04:31PM 33.2336 -112.0178 120° Southeast 310 357 12,600 2,580 Climbing Albuquerque Center
04:32PM 33.2222 -111.9153 98° East 313 360 15,100 2,340 Climbing Albuquerque Center
04:33PM 33.2114 -111.8092 97° East 322 371 17,500 2,340 Climbing Albuquerque Center
04:34PM 33.1986 -111.6994 98° East 333 383 19,900 2,340 Climbing Albuquerque Center
04:35PM 33.1708 -111.5683 104° East 341 392 22,300 1,740 Climbing Albuquerque Center
04:36PM 33.1469 -111.4547 104° East 353 406 23,600 1,020 Climbing Albuquerque Center
04:37PM 33.1231 -111.3367 104° East 364 419 24,400 840 Climbing Albuquerque Center
04:38PM 33.0975 -111.2147 104° East 378 435 25,400 720 Climbing Albuquerque Center
04:39PM 33.0703 -111.0900 105° East 387 445 26,000 480 Climbing Albuquerque Center
04:40PM 33.0433 -110.9583 104° East 405 466 26,500 720 Climbing Albuquerque Center
04:41PM 33.0097 -110.8050 105° East 404 465 27,500 1,020 Climbing Albuquerque Center
04:42PM 32.9828 -110.6775 104° East 399 459 28,600 1,020 Climbing Albuquerque Center
04:43PM 32.9531 -110.5489 105° East 395 455 29,600 960 Climbing Albuquerque Center
04:44PM 32.9269 -110.4239 104° East 392 451 30,600 960 Climbing Albuquerque Center
04:45PM 32.8997 -110.2972 104° East 395 455 31,600 960 Climbing Albuquerque Center
04:46PM 32.8717 -110.1703 105° East 397 457 32,600 660 Climbing Albuquerque Center
04:47PM 32.8433 -110.0419 105° East 400 460 33,000 180 Climbing Albuquerque Center
04:48PM 32.8103 -109.9069 106° East 419 482 33,000  Level Albuquerque Center
04:49PM 32.7747 -109.7436 104° East 427 491 33,000  Level Albuquerque Center
04:50PM 32.7447 -109.6075 105° East 428 493 33,000  Level Albuquerque Center
04:51PM 32.7136 -109.4725 105° East 428 493 33,000  Level Albuquerque Center
04:52PM 32.6744 -109.3394 109° East 430 495 33,000  Level Albuquerque Center
04:53PM 32.6331 -109.2081 110° East 430 495 33,000  Level Albuquerque Center
04:54PM 32.5942 -109.0761 109° East 429 494 33,000  Level Albuquerque Center
04:55PM 32.5461 -108.9167 110° East 431 496 33,000  Level Albuquerque Center
04:56PM 32.5031 -108.7864 111° Southeast 431 496 33,000  Level Albuquerque Center
04:57PM 32.4358 -108.6708 125° Southeast 431 496 33,000  Level Albuquerque Center
04:58PM 32.3625 -108.5589 128° Southeast 432 497 33,000  Level Albuquerque Center
04:59PM 32.3339 -108.4264 104° East 437 503 33,000  Level Albuquerque Center
05:00PM 32.3075 -108.2600 101° East 432 497 33,000  Level Albuquerque Center
05:02PM 32.2864 -108.1217 100° East 430 495 33,000  Level Albuquerque Center
05:03PM 32.2644 -107.9819 100° East 433 498 33,000  Level Albuquerque Center
05:04PM 32.2436 -107.8442 100° East 431 496 33,000  Level Albuquerque Center
05:05PM 32.2217 -107.7053 101° East 432 497 33,000 -840 Level Albuquerque Center
05:06PM 32.1997 -107.5653 100° East 435 501 31,400 -2,520 Descending Albuquerque Center
05:07PM 32.1747 -107.4028 100° East 428 493 27,900 -3,120 Descending Albuquerque Center
05:08PM 32.1528 -107.2722 101° East 417 480 25,000 -2,820 Descending Albuquerque Center
05:09PM 32.1339 -107.1439 100° East 406 467 22,200 -2,760 Descending Albuquerque Center
05:10PM 32.1131 -107.0161 101° East 403 464 19,400 -2,760 Descending Albuquerque Center
05:11PM 32.0928 -106.8942 101° East 366 421 16,900 -2,640 Descending Albuquerque Center
05:12PM 32.0747 -106.7808 101° East 316 364 14,100 -2,520 Descending Albuquerque Center
05:13PM 32.0597 -106.6844 100° East 300 345 11,600 -2,520 Descending Albuquerque Center
05:14PM 32.0464 -106.5850 99° East 279 321 9,100 -1,320 Descending Albuquerque Center
05:15PM 32.0328 -106.4983 100° East 261 300 9,000 -720 Descending Albuquerque Center
05:16PM 32.0081 -106.4133 109° East 288 331 7,700 -1,260 Descending Albuquerque Center
05:17PM 31.9469 -106.3644 146° Southeast 264 304 6,500 -900 Descending Albuquerque Center
05:18PM 31.8856 -106.3444 165° South 216 249 6,000 -660 Descending Albuquerque Center
05:19PM 31.8311 -106.3381 174° South 189 217 5,200 -1,020 Descending Albuquerque Center
05:20PM 31.8000 -106.3558 206° Southwest 134 154 4,000 -1,200 Descending Albuquerque Center
05:22PM 31.8000 -106.3667 270° West  Level FlightAware Approximate
05:29PM 31.8072 -106.3764 270° West  Level Estimated
05:30PM 31.8072 -106.3764 270° West  Level Estimated
05:31PM 31.8072 -106.3764 270° West  Level Estimated
05:32PM 31.8072 -106.3764 270° West  Level Estimated